createdAt,value
2017-09-22T00:00:58.978Z,0
2017-09-22T00:01:59.530Z,0
2017-09-22T00:02:58.351Z,0
2017-09-22T00:03:58.653Z,0
2017-09-22T00:04:59.268Z,0
2017-09-22T00:05:58.957Z,0
2017-09-22T00:06:58.646Z,0
2017-09-22T00:07:58.954Z,0
2017-09-22T00:08:58.637Z,0
2017-09-22T00:09:58.948Z,0
2017-09-22T00:10:58.638Z,0
2017-09-22T00:11:58.947Z,0
2017-09-22T00:12:59.251Z,0
2017-09-22T00:13:58.956Z,0
2017-09-22T00:14:58.936Z,0
2017-09-22T00:15:58.610Z,0
2017-09-22T00:16:58.913Z,0
2017-09-22T00:17:58.940Z,0
2017-09-22T00:18:58.612Z,0
2017-09-22T00:19:58.305Z,0
2017-09-22T00:20:59.213Z,0
2017-09-22T00:21:58.284Z,0
2017-09-22T00:22:59.224Z,0
2017-09-22T00:23:58.286Z,0
2017-09-22T00:24:59.208Z,0
2017-09-22T00:25:58.898Z,0
2017-09-22T00:26:58.906Z,0
2017-09-22T00:27:58.896Z,0
2017-09-22T00:28:58.583Z,0
2017-09-22T00:29:58.891Z,0
2017-09-22T00:30:58.567Z,0
2017-09-22T00:44:43.422Z,0
2017-09-22T00:45:19.851Z,0
2017-09-22T00:46:18.896Z,0
2017-09-22T00:47:18.899Z,0
2017-09-22T00:48:19.190Z,0
2017-09-22T00:49:19.190Z,0
2017-09-22T00:50:20.375Z,0
2017-09-22T00:51:19.182Z,0
2017-09-22T00:52:19.182Z,0
2017-09-22T00:53:19.484Z,0
2017-09-22T00:54:19.226Z,0
2017-09-22T00:55:20.255Z,0
2017-09-22T00:56:19.513Z,0
2017-09-22T00:57:18.538Z,0
2017-09-22T00:58:19.465Z,0
2017-09-22T00:59:18.847Z,0
2017-09-22T01:00:20.766Z,0
2017-09-22T01:01:19.151Z,0
2017-09-22T01:02:18.840Z,0
2017-09-22T01:03:18.830Z,0
2017-09-22T01:04:19.437Z,0
2017-09-22T01:05:21.062Z,0
2017-09-22T01:06:18.831Z,0
2017-09-22T01:07:18.817Z,0
2017-09-22T01:08:18.837Z,0
2017-09-22T01:09:18.807Z,0
2017-09-22T01:10:20.189Z,0
2017-09-22T01:11:19.109Z,0
2017-09-22T01:12:19.153Z,0
2017-09-22T01:13:19.430Z,0
2017-09-22T01:14:19.408Z,0
2017-09-22T01:15:19.848Z,0
2017-09-22T01:16:18.495Z,0
2017-09-22T01:17:19.439Z,0
2017-09-22T01:18:19.393Z,0
2017-09-22T01:19:18.776Z,0
2017-09-22T01:20:20.042Z,0
2017-09-22T01:21:18.776Z,0
2017-09-22T01:22:19.390Z,0
2017-09-22T01:23:18.457Z,0
2017-09-22T01:24:18.773Z,0
2017-09-22T01:25:20.391Z,0
2017-09-22T01:26:18.768Z,0
2017-09-22T01:27:18.770Z,0
2017-09-22T01:28:18.439Z,0
2017-09-22T01:29:19.054Z,0
2017-09-22T01:30:25.116Z,0
2017-09-22T01:31:18.829Z,0
2017-09-22T01:32:18.753Z,0
2017-09-22T01:33:19.038Z,0
2017-09-22T01:34:19.366Z,0
2017-09-22T01:35:20.022Z,0
2017-09-22T01:36:19.038Z,0
2017-09-22T01:37:19.024Z,0
2017-09-22T01:38:18.722Z,0
2017-09-22T01:39:19.013Z,0
2017-09-22T01:40:20.213Z,0
2017-09-22T01:41:19.315Z,0
2017-09-22T01:42:19.310Z,0
2017-09-22T01:43:18.709Z,0
2017-09-22T01:44:19.308Z,0
2017-09-22T01:45:20.005Z,0
2017-09-22T01:46:18.990Z,0
2017-09-22T01:47:18.379Z,0
2017-09-22T01:48:18.674Z,0
2017-09-22T01:49:18.987Z,0
2017-09-22T01:50:20.327Z,0
2017-09-22T01:51:18.676Z,0
2017-09-22T01:52:18.978Z,0
2017-09-22T01:53:18.348Z,0
2017-09-22T01:54:19.528Z,0
2017-09-22T01:55:20.335Z,0
2017-09-22T01:56:18.955Z,0
2017-09-22T01:57:18.649Z,0
2017-09-22T01:58:18.948Z,0
2017-09-22T01:59:18.946Z,0
2017-09-22T02:00:20.158Z,0
2017-09-22T02:01:19.995Z,0
2017-09-22T02:02:18.981Z,0
2017-09-22T02:03:18.934Z,0
2017-09-22T02:04:18.627Z,0
2017-09-22T02:05:19.552Z,0
2017-09-22T02:06:19.278Z,0
2017-09-22T02:07:19.305Z,0
2017-09-22T02:08:19.219Z,0
2017-09-22T02:09:18.912Z,0
2017-09-22T02:10:20.756Z,0
2017-09-22T02:11:18.280Z,0
2017-09-22T02:12:18.892Z,0
2017-09-22T02:13:18.893Z,0
2017-09-22T02:14:18.916Z,0
2017-09-22T02:15:20.311Z,0
2017-09-22T02:16:18.883Z,0
2017-09-22T02:17:18.875Z,0
2017-09-22T02:18:18.564Z,0
2017-09-22T02:19:19.173Z,0
2017-09-22T02:20:20.459Z,0
2017-09-22T02:21:18.857Z,0
2017-09-22T02:22:18.861Z,0
2017-09-22T02:23:18.242Z,0
2017-09-22T02:24:18.852Z,0
2017-09-22T02:25:19.420Z,0
2017-09-22T02:26:18.536Z,0
2017-09-22T02:27:18.836Z,0
2017-09-22T02:28:19.142Z,0
2017-09-22T02:29:18.830Z,0
2017-09-22T02:30:19.471Z,0
2017-09-22T02:31:20.638Z,0
2017-09-22T02:32:18.196Z,0
2017-09-22T02:33:19.128Z,0
2017-09-22T02:34:18.818Z,0
2017-09-22T02:35:20.235Z,0
2017-09-22T02:36:18.497Z,0
2017-09-22T02:37:18.802Z,0
2017-09-22T02:38:18.495Z,0
2017-09-22T02:39:18.177Z,0
2017-09-22T02:40:20.815Z,0
2017-09-22T02:41:18.483Z,0
2017-09-22T02:42:18.475Z,0
2017-09-22T02:43:18.783Z,0
2017-09-22T02:44:18.783Z,0
2017-09-22T02:45:19.108Z,0
2017-09-22T02:46:18.147Z,0
2017-09-22T02:47:18.765Z,0
2017-09-22T02:48:18.463Z,0
2017-09-22T02:49:18.762Z,0
2017-09-22T02:50:19.775Z,0
2017-09-22T02:51:19.089Z,0
2017-09-22T02:52:19.052Z,0
2017-09-22T02:53:18.433Z,0
2017-09-22T02:54:18.430Z,0
2017-09-22T02:55:19.632Z,0
2017-09-22T02:56:18.734Z,0
2017-09-22T02:57:19.056Z,0
2017-09-22T02:58:18.749Z,0
2017-09-22T02:59:19.049Z,0
2017-09-22T03:00:20.247Z,0
2017-09-22T03:01:18.416Z,0
2017-09-22T03:02:19.038Z,0
2017-09-22T03:03:18.390Z,0
2017-09-22T03:04:19.010Z,0
2017-09-22T03:05:20.034Z,0
2017-09-22T03:06:18.704Z,0
2017-09-22T03:07:18.372Z,0
2017-09-22T03:08:18.989Z,0
2017-09-22T03:09:18.396Z,0
2017-09-22T03:10:19.472Z,0
2017-09-22T03:11:18.987Z,0
2017-09-22T03:12:18.373Z,0
2017-09-22T03:13:18.970Z,0
2017-09-22T03:14:18.684Z,0
2017-09-22T03:15:20.193Z,0
2017-09-22T03:16:18.649Z,0
2017-09-22T03:17:18.354Z,0
2017-09-22T03:18:18.641Z,0
2017-09-22T03:19:18.641Z,0
2017-09-22T03:20:20.168Z,0
2017-09-22T03:21:18.639Z,0
2017-09-22T03:22:18.632Z,0
2017-09-22T03:23:18.936Z,0
2017-09-22T03:24:18.623Z,0
2017-09-22T03:25:20.404Z,0
2017-09-22T03:26:17.997Z,0
2017-09-22T03:27:18.303Z,0
2017-09-22T03:28:18.613Z,0
2017-09-22T03:29:18.301Z,0
2017-09-22T03:30:20.355Z,0
2017-09-22T03:31:18.597Z,0
2017-09-22T03:32:19.850Z,0
2017-09-22T03:33:18.584Z,0
2017-09-22T03:34:18.292Z,0
2017-09-22T03:35:19.780Z,0
2017-09-22T03:36:18.884Z,0
2017-09-22T03:37:17.967Z,0
2017-09-22T03:38:18.266Z,0
2017-09-22T03:39:18.565Z,0
2017-09-22T03:40:19.595Z,0
2017-09-22T03:41:18.563Z,0
2017-09-22T03:42:18.556Z,0
2017-09-22T03:43:18.853Z,0
2017-09-22T03:44:17.932Z,0
2017-09-22T03:45:19.795Z,0
2017-09-22T03:46:18.218Z,0
2017-09-22T03:47:18.521Z,0
2017-09-22T03:48:17.919Z,0
2017-09-22T03:49:18.508Z,0
2017-09-22T03:50:19.586Z,0
2017-09-22T03:51:18.511Z,0
2017-09-22T03:52:18.504Z,0
2017-09-22T03:53:18.535Z,0
2017-09-22T03:54:18.183Z,0
2017-09-22T03:55:19.949Z,0
2017-09-22T03:56:18.196Z,0
2017-09-22T03:57:18.488Z,0
2017-09-22T03:58:18.780Z,0
2017-09-22T03:59:18.768Z,0
2017-09-22T04:00:19.856Z,0
2017-09-22T04:01:18.467Z,0
2017-09-22T04:02:18.733Z,0
2017-09-22T04:03:18.135Z,0
2017-09-22T04:04:17.826Z,0
2017-09-22T04:05:19.635Z,0
2017-09-22T04:06:18.742Z,0
2017-09-22T04:07:18.449Z,0
2017-09-22T04:08:18.441Z,0
2017-09-22T04:09:18.459Z,0
2017-09-22T04:10:19.750Z,0
2017-09-22T04:11:18.095Z,0
2017-09-22T04:12:18.092Z,0
2017-09-22T04:13:17.794Z,0
2017-09-22T04:14:17.485Z,0
2017-09-22T04:15:19.816Z,0
2017-09-22T04:16:18.402Z,0
2017-09-22T04:17:19.322Z,0
2017-09-22T04:18:18.695Z,0
2017-09-22T04:19:18.070Z,0
2017-09-22T04:20:19.540Z,0
2017-09-22T04:21:18.050Z,0
2017-09-22T04:22:18.082Z,0
2017-09-22T04:23:18.056Z,0
2017-09-22T04:24:18.044Z,0
2017-09-22T04:25:19.104Z,0
2017-09-22T04:26:18.357Z,0
2017-09-22T04:27:18.341Z,0
2017-09-22T04:28:18.027Z,0
2017-09-22T04:29:18.337Z,0
2017-09-22T04:30:19.028Z,0
2017-09-22T04:31:18.312Z,0
2017-09-22T04:32:20.455Z,0
2017-09-22T04:33:18.000Z,0
2017-09-22T04:34:18.617Z,0
2017-09-22T04:35:19.766Z,0
2017-09-22T04:36:18.616Z,0
2017-09-22T04:37:18.333Z,0
2017-09-22T04:38:17.662Z,0
2017-09-22T04:39:18.283Z,0
2017-09-22T04:40:18.551Z,0
2017-09-22T04:41:18.274Z,0
2017-09-22T04:42:18.585Z,0
2017-09-22T04:43:17.943Z,0
2017-09-22T04:44:18.257Z,0
2017-09-22T04:45:19.011Z,0
2017-09-22T04:46:18.259Z,0
2017-09-22T04:47:17.922Z,0
2017-09-22T04:48:18.239Z,0
2017-09-22T04:49:17.598Z,0
2017-09-22T04:50:19.345Z,0
2017-09-22T04:51:17.905Z,0
2017-09-22T04:52:17.913Z,0
2017-09-22T04:53:17.579Z,0
2017-09-22T04:54:18.217Z,0
2017-09-22T04:55:19.446Z,0
2017-09-22T04:56:18.209Z,0
2017-09-22T04:57:17.579Z,0
2017-09-22T04:58:17.554Z,0
2017-09-22T04:59:17.857Z,0
2017-09-22T05:00:18.112Z,0
2017-09-22T05:01:18.166Z,0
2017-09-22T05:02:18.972Z,0
2017-09-22T05:03:18.179Z,0
2017-09-22T05:04:17.533Z,0
2017-09-22T05:05:18.278Z,0
2017-09-22T05:06:17.833Z,5
2017-09-22T05:07:18.137Z,5
2017-09-22T05:08:18.135Z,5
2017-09-22T05:09:18.129Z,5
2017-09-22T05:10:19.442Z,5
2017-09-22T05:11:18.111Z,5
2017-09-22T05:12:18.103Z,5
2017-09-22T05:13:17.797Z,5
2017-09-22T05:14:18.118Z,10
2017-09-22T05:15:20.142Z,10
2017-09-22T05:16:17.789Z,10
2017-09-22T05:17:18.404Z,10
2017-09-22T05:18:17.771Z,10
2017-09-22T05:19:18.101Z,15
2017-09-22T05:20:19.359Z,15
2017-09-22T05:21:17.478Z,15
2017-09-22T05:22:18.380Z,15
2017-09-22T05:23:18.373Z,15
2017-09-22T05:24:18.377Z,20
2017-09-22T05:25:19.073Z,20
2017-09-22T05:26:17.733Z,20
2017-09-22T05:27:18.049Z,20
2017-09-22T05:28:18.050Z,20
2017-09-22T05:29:18.374Z,25
2017-09-22T05:30:19.703Z,25
2017-09-22T05:31:18.025Z,25
2017-09-22T05:32:18.012Z,30
2017-09-22T05:33:19.198Z,30
2017-09-22T05:34:18.026Z,30
2017-09-22T05:35:18.961Z,35
2017-09-22T05:36:17.696Z,35
2017-09-22T05:37:17.698Z,35
2017-09-22T05:38:17.991Z,40
2017-09-22T05:39:17.377Z,40
2017-09-22T05:40:19.220Z,40
2017-09-22T05:41:17.662Z,45
2017-09-22T05:42:17.974Z,45
2017-09-22T05:43:17.974Z,50
2017-09-22T05:44:17.658Z,50
2017-09-22T05:45:19.345Z,50
2017-09-22T05:46:17.645Z,50
2017-09-22T05:47:17.334Z,55
2017-09-22T05:48:20.096Z,55
2017-09-22T05:49:18.244Z,55
2017-09-22T05:50:18.301Z,60
2017-09-22T05:51:18.248Z,60
2017-09-22T05:52:17.917Z,65
2017-09-22T05:53:18.225Z,70
2017-09-22T05:54:17.909Z,70
2017-09-22T05:55:19.435Z,75
2017-09-22T05:56:17.590Z,75
2017-09-22T05:57:17.894Z,75
2017-09-22T05:58:18.203Z,80
2017-09-22T05:59:17.579Z,80
2017-09-22T06:00:19.253Z,80
2017-09-22T06:01:17.569Z,80
2017-09-22T06:02:17.878Z,85
2017-09-22T06:03:21.069Z,90
2017-09-22T06:04:17.247Z,95
2017-09-22T06:05:18.983Z,100
2017-09-22T06:06:18.163Z,100
2017-09-22T06:07:17.554Z,100
2017-09-22T06:08:18.167Z,100
2017-09-22T06:09:17.858Z,105
2017-09-22T06:10:18.949Z,110
2017-09-22T06:11:17.848Z,110
2017-09-22T06:12:17.858Z,115
2017-09-22T06:13:18.160Z,115
2017-09-22T06:14:17.842Z,120
2017-09-22T06:15:19.040Z,120
2017-09-22T06:16:17.206Z,120
2017-09-22T06:17:16.895Z,120
2017-09-22T06:18:17.508Z,120
2017-09-22T06:19:17.815Z,120
2017-09-22T06:20:19.020Z,125
2017-09-22T06:21:17.803Z,125
2017-09-22T06:22:17.192Z,125
2017-09-22T06:23:18.118Z,125
2017-09-22T06:24:17.194Z,115
2017-09-22T06:25:18.653Z,115
2017-09-22T06:26:17.811Z,105
2017-09-22T06:27:16.888Z,105
2017-09-22T06:28:17.807Z,105
2017-09-22T06:29:17.173Z,105
2017-09-22T06:30:18.954Z,105
2017-09-22T06:31:17.789Z,105
2017-09-22T06:32:17.474Z,105
2017-09-22T06:33:17.792Z,105
2017-09-22T06:34:20.157Z,105
2017-09-22T06:35:18.510Z,105
2017-09-22T06:36:17.785Z,110
2017-09-22T06:37:17.769Z,110
2017-09-22T06:38:17.765Z,110
2017-09-22T06:39:17.457Z,110
2017-09-22T06:40:18.729Z,110
2017-09-22T06:41:18.080Z,110
2017-09-22T06:42:17.765Z,115
2017-09-22T06:43:17.148Z,115
2017-09-22T06:44:17.138Z,115
2017-09-22T06:45:19.705Z,115
2017-09-22T06:46:17.149Z,115
2017-09-22T06:47:17.447Z,115
2017-09-22T06:48:17.438Z,115
2017-09-22T06:49:18.066Z,120
2017-09-22T06:50:18.803Z,120
2017-09-22T06:51:18.067Z,120
2017-09-22T06:52:18.037Z,120
2017-09-22T06:53:17.750Z,120
2017-09-22T06:54:17.116Z,120
2017-09-22T06:55:19.419Z,120
2017-09-22T06:56:18.048Z,120
2017-09-22T06:57:17.737Z,120
2017-09-22T06:58:17.744Z,120
2017-09-22T06:59:17.417Z,120
2017-09-22T07:00:19.014Z,120
2017-09-22T07:01:18.031Z,120
2017-09-22T07:02:18.027Z,125
2017-09-22T07:03:17.695Z,125
2017-09-22T07:04:22.961Z,125
2017-09-22T07:05:18.118Z,125
2017-09-22T07:06:17.071Z,130
2017-09-22T07:07:17.689Z,130
2017-09-22T07:08:17.684Z,130
2017-09-22T07:09:17.692Z,135
2017-09-22T07:10:17.778Z,135
2017-09-22T07:11:17.371Z,135
2017-09-22T07:12:17.380Z,135
2017-09-22T07:13:17.375Z,140
2017-09-22T07:14:17.359Z,140
2017-09-22T07:15:18.849Z,140
2017-09-22T07:16:17.666Z,140
2017-09-22T07:17:16.736Z,140
2017-09-22T07:18:17.350Z,140
2017-09-22T07:19:17.947Z,140
2017-09-22T07:20:19.215Z,145
2017-09-22T07:21:17.658Z,140
2017-09-22T07:22:17.337Z,140
2017-09-22T07:23:17.962Z,145
2017-09-22T07:24:17.337Z,150
2017-09-22T07:25:17.976Z,175
2017-09-22T07:26:17.017Z,165
2017-09-22T07:27:17.330Z,175
2017-09-22T07:28:17.950Z,170
2017-09-22T07:29:17.959Z,170
2017-09-22T07:30:18.482Z,175
2017-09-22T07:31:17.984Z,160
2017-09-22T07:32:17.631Z,160
2017-09-22T07:33:17.631Z,160
2017-09-22T07:34:20.880Z,160
2017-09-22T07:35:18.934Z,160
2017-09-22T07:36:17.950Z,165
2017-09-22T07:37:17.631Z,165
2017-09-22T07:38:17.948Z,165
2017-09-22T07:39:17.649Z,165
2017-09-22T07:40:18.458Z,175
2017-09-22T07:41:17.313Z,205
2017-09-22T07:42:17.926Z,190
2017-09-22T07:43:17.932Z,190
2017-09-22T07:44:17.328Z,200
2017-09-22T07:45:18.938Z,190
2017-09-22T07:46:17.633Z,185
2017-09-22T07:47:17.620Z,190
2017-09-22T07:48:17.941Z,185
2017-09-22T07:49:17.308Z,175
2017-09-22T07:50:18.815Z,170
2017-09-22T07:51:17.620Z,170
2017-09-22T07:52:17.623Z,170
2017-09-22T07:53:17.613Z,170
2017-09-22T07:54:17.620Z,170
2017-09-22T07:55:18.907Z,175
2017-09-22T07:56:17.616Z,180
2017-09-22T07:57:17.637Z,195
2017-09-22T07:58:17.000Z,200
2017-09-22T07:59:17.314Z,235
2017-09-22T08:00:18.868Z,260
2017-09-22T08:01:17.939Z,250
2017-09-22T08:02:17.004Z,275
2017-09-22T08:03:17.304Z,270
2017-09-22T08:04:17.950Z,265
2017-09-22T08:05:21.422Z,270
2017-09-22T08:06:17.339Z,270
2017-09-22T08:07:17.311Z,265
2017-09-22T08:08:17.315Z,265
2017-09-22T08:09:17.632Z,255
2017-09-22T08:10:19.649Z,255
2017-09-22T08:11:17.627Z,255
2017-09-22T08:12:17.329Z,250
2017-09-22T08:13:17.648Z,250
2017-09-22T08:14:17.949Z,250
2017-09-22T08:15:20.171Z,250
2017-09-22T08:16:17.648Z,255
2017-09-22T08:17:17.968Z,260
2017-09-22T08:18:17.346Z,260
2017-09-22T08:19:17.042Z,260
2017-09-22T08:20:18.640Z,265
2017-09-22T08:21:17.043Z,265
2017-09-22T08:22:17.073Z,265
2017-09-22T08:23:17.664Z,265
2017-09-22T08:24:17.674Z,265
2017-09-22T08:25:19.059Z,265
2017-09-22T08:26:17.358Z,265
2017-09-22T08:27:17.688Z,200
2017-09-22T08:28:17.679Z,200
2017-09-22T08:29:17.993Z,230
2017-09-22T08:30:19.199Z,285
2017-09-22T08:31:17.372Z,285
2017-09-22T08:32:17.066Z,290
2017-09-22T08:33:17.386Z,295
2017-09-22T08:34:17.994Z,300
2017-09-22T08:35:19.945Z,305
2017-09-22T08:36:17.390Z,310
2017-09-22T08:37:17.998Z,320
2017-09-22T08:38:17.082Z,315
2017-09-22T08:39:17.380Z,320
2017-09-22T08:40:18.826Z,295
2017-09-22T08:41:17.395Z,290
2017-09-22T08:42:18.013Z,240
2017-09-22T08:43:17.401Z,255
2017-09-22T08:44:17.701Z,240
2017-09-22T08:45:18.298Z,230
2017-09-22T08:46:17.439Z,235
2017-09-22T08:47:17.102Z,225
2017-09-22T08:48:17.100Z,310
2017-09-22T08:49:17.714Z,260
2017-09-22T08:50:19.767Z,245
2017-09-22T08:51:18.022Z,215
2017-09-22T08:52:17.405Z,250
2017-09-22T08:53:17.725Z,220
2017-09-22T08:54:17.107Z,215
2017-09-22T08:55:18.129Z,300
2017-09-22T08:56:17.424Z,255
2017-09-22T08:57:18.070Z,270
2017-09-22T08:58:17.722Z,225
2017-09-22T08:59:18.032Z,210
2017-09-22T09:00:18.801Z,275
2017-09-22T09:01:17.107Z,250
2017-09-22T09:02:18.046Z,270
2017-09-22T09:03:17.117Z,295
2017-09-22T09:04:18.049Z,295
2017-09-22T09:05:18.620Z,295
2017-09-22T09:06:18.810Z,290
2017-09-22T09:07:18.078Z,285
2017-09-22T09:08:17.120Z,290
2017-09-22T09:09:17.741Z,285
2017-09-22T09:10:19.242Z,285
2017-09-22T09:11:17.128Z,285
2017-09-22T09:12:17.751Z,265
2017-09-22T09:13:17.756Z,230
2017-09-22T09:14:17.140Z,200
2017-09-22T09:15:19.112Z,170
2017-09-22T09:16:17.135Z,195
2017-09-22T09:17:18.082Z,165
2017-09-22T09:18:17.765Z,170
2017-09-22T09:19:17.768Z,160
2017-09-22T09:20:19.358Z,165
2017-09-22T09:21:18.080Z,260
2017-09-22T09:22:17.777Z,260
2017-09-22T09:23:18.088Z,185
2017-09-22T09:24:17.776Z,235
2017-09-22T09:25:19.222Z,250
2017-09-22T09:26:17.793Z,255
2017-09-22T09:27:17.777Z,255
2017-09-22T09:28:17.781Z,255
2017-09-22T09:29:17.482Z,250
2017-09-22T09:30:19.110Z,250
2017-09-22T09:31:17.487Z,250
2017-09-22T09:32:17.795Z,250
2017-09-22T09:33:18.112Z,250
2017-09-22T09:34:18.112Z,250
2017-09-22T09:35:18.059Z,250
2017-09-22T09:36:20.628Z,250
2017-09-22T09:37:17.489Z,240
2017-09-22T09:38:17.795Z,240
2017-09-22T09:39:17.196Z,240
2017-09-22T09:40:18.259Z,240
2017-09-22T09:41:18.109Z,235
2017-09-22T09:42:17.800Z,240
2017-09-22T09:43:18.121Z,240
2017-09-22T09:44:17.504Z,240
2017-09-22T09:45:18.771Z,240
2017-09-22T09:46:17.823Z,245
2017-09-22T09:47:18.130Z,245
2017-09-22T09:48:17.205Z,240
2017-09-22T09:49:17.502Z,245
2017-09-22T09:50:18.722Z,250
2017-09-22T09:51:17.515Z,250
2017-09-22T09:52:17.516Z,245
2017-09-22T09:53:17.820Z,240
2017-09-22T09:54:17.516Z,240
2017-09-22T09:55:18.708Z,250
2017-09-22T09:56:17.855Z,250
2017-09-22T09:57:17.828Z,245
2017-09-22T09:58:17.858Z,235
2017-09-22T09:59:17.838Z,235
2017-09-22T10:00:19.628Z,235
2017-09-22T10:01:17.835Z,230
2017-09-22T10:02:17.538Z,235
2017-09-22T10:03:17.631Z,240
2017-09-22T10:04:17.529Z,240
2017-09-22T10:05:18.658Z,240
2017-09-22T10:06:20.182Z,240
2017-09-22T10:07:18.172Z,240
2017-09-22T10:08:17.542Z,240
2017-09-22T10:09:17.585Z,240
2017-09-22T10:10:19.445Z,235
2017-09-22T10:11:16.930Z,235
2017-09-22T10:12:18.174Z,235
2017-09-22T10:13:17.561Z,235
2017-09-22T10:14:17.553Z,230
2017-09-22T10:15:19.040Z,230
2017-09-22T10:16:17.860Z,230
2017-09-22T10:17:17.862Z,230
2017-09-22T10:18:17.557Z,230
2017-09-22T10:19:18.181Z,230
2017-09-22T10:20:19.410Z,230
2017-09-22T10:21:17.276Z,220
2017-09-22T10:22:17.887Z,220
2017-09-22T10:23:17.882Z,210
2017-09-22T10:24:17.881Z,210
2017-09-22T10:25:19.897Z,215
2017-09-22T10:26:17.876Z,205
2017-09-22T10:27:17.887Z,195
2017-09-22T10:28:17.884Z,190
2017-09-22T10:29:17.584Z,190
2017-09-22T10:30:19.105Z,195
2017-09-22T10:31:18.202Z,190
2017-09-22T10:32:18.198Z,190
2017-09-22T10:33:17.286Z,190
2017-09-22T10:34:17.904Z,215
2017-09-22T10:35:20.103Z,205
2017-09-22T10:36:17.912Z,220
2017-09-22T10:37:17.854Z,220
2017-09-22T10:38:17.907Z,220
2017-09-22T10:39:17.914Z,220
2017-09-22T10:40:19.563Z,220
2017-09-22T10:41:17.603Z,220
2017-09-22T10:42:17.932Z,215
2017-09-22T10:43:17.306Z,215
2017-09-22T10:44:17.934Z,215
2017-09-22T10:45:19.576Z,215
2017-09-22T10:46:17.930Z,215
2017-09-22T10:47:17.788Z,215
2017-09-22T10:48:17.647Z,220
2017-09-22T10:49:17.318Z,220
2017-09-22T10:50:20.359Z,220
2017-09-22T10:51:17.631Z,215
2017-09-22T10:52:22.730Z,215
2017-09-22T10:53:17.312Z,215
2017-09-22T10:54:18.246Z,220
2017-09-22T10:55:19.187Z,220
2017-09-22T10:56:18.248Z,215
2017-09-22T10:57:17.652Z,220
2017-09-22T10:58:17.640Z,215
2017-09-22T10:59:17.337Z,220
2017-09-22T11:00:20.768Z,210
2017-09-22T11:01:17.652Z,215
2017-09-22T11:02:18.270Z,215
2017-09-22T11:03:17.649Z,215
2017-09-22T11:04:17.996Z,205
2017-09-22T11:05:20.234Z,175
2017-09-22T11:06:18.280Z,150
2017-09-22T11:07:18.773Z,140
2017-09-22T11:08:17.664Z,155
2017-09-22T11:09:17.658Z,200
2017-09-22T11:10:19.285Z,210
2017-09-22T11:11:17.662Z,215
2017-09-22T11:12:17.664Z,210
2017-09-22T11:13:17.972Z,210
2017-09-22T11:14:18.300Z,210
2017-09-22T11:15:19.360Z,205
2017-09-22T11:16:17.988Z,205
2017-09-22T11:17:17.982Z,205
2017-09-22T11:18:17.677Z,185
2017-09-22T11:19:17.366Z,190
2017-09-22T11:20:19.999Z,195
2017-09-22T11:21:18.309Z,200
2017-09-22T11:22:17.991Z,200
2017-09-22T11:23:17.697Z,195
2017-09-22T11:24:17.693Z,195
2017-09-22T11:25:19.417Z,195
2017-09-22T11:26:17.697Z,195
2017-09-22T11:27:18.013Z,195
2017-09-22T11:28:17.715Z,195
2017-09-22T11:29:17.712Z,190
2017-09-22T11:30:18.768Z,190
2017-09-22T11:31:18.323Z,190
2017-09-22T11:32:18.023Z,180
2017-09-22T11:33:18.032Z,185
2017-09-22T11:34:17.716Z,185
2017-09-22T11:35:19.328Z,185
2017-09-22T11:36:17.717Z,185
2017-09-22T11:37:17.918Z,185
2017-09-22T11:38:17.453Z,180
2017-09-22T11:39:18.037Z,180
2017-09-22T11:40:19.061Z,180
2017-09-22T11:41:17.742Z,185
2017-09-22T11:42:17.728Z,185
2017-09-22T11:43:17.735Z,185
2017-09-22T11:44:18.047Z,185
2017-09-22T11:45:18.819Z,155
2017-09-22T11:46:17.450Z,150
2017-09-22T11:47:17.773Z,135
2017-09-22T11:48:18.075Z,140
2017-09-22T11:49:18.059Z,140
2017-09-22T11:50:18.691Z,175
2017-09-22T11:51:18.416Z,180
2017-09-22T11:52:17.137Z,180
2017-09-22T11:53:17.497Z,180
2017-09-22T11:54:18.066Z,180
2017-09-22T11:55:19.532Z,180
2017-09-22T11:56:17.780Z,180
2017-09-22T11:57:17.784Z,180
2017-09-22T11:58:18.074Z,180
2017-09-22T11:59:17.787Z,175
2017-09-22T12:00:18.887Z,175
2017-09-22T12:01:18.409Z,155
2017-09-22T12:02:17.792Z,175
2017-09-22T12:03:17.786Z,160
2017-09-22T12:04:18.411Z,155
2017-09-22T12:05:19.870Z,155
2017-09-22T12:06:17.801Z,165
2017-09-22T12:07:18.123Z,175
2017-09-22T12:08:19.412Z,175
2017-09-22T12:09:18.108Z,180
2017-09-22T12:10:19.421Z,175
2017-09-22T12:11:18.111Z,175
2017-09-22T12:12:17.503Z,175
2017-09-22T12:13:18.122Z,175
2017-09-22T12:14:18.436Z,175
2017-09-22T12:15:19.349Z,175
2017-09-22T12:16:18.120Z,180
2017-09-22T12:17:18.434Z,180
2017-09-22T12:18:17.842Z,180
2017-09-22T12:19:18.136Z,180
2017-09-22T12:20:19.277Z,175
2017-09-22T12:21:18.144Z,170
2017-09-22T12:22:17.845Z,170
2017-09-22T12:23:18.538Z,170
2017-09-22T12:24:18.142Z,170
2017-09-22T12:25:19.221Z,170
2017-09-22T12:26:18.145Z,170
2017-09-22T12:27:18.153Z,170
2017-09-22T12:28:17.847Z,170
2017-09-22T12:29:17.859Z,170
2017-09-22T12:30:19.278Z,170
2017-09-22T12:31:17.874Z,170
2017-09-22T12:32:18.481Z,170
2017-09-22T12:33:17.864Z,165
2017-09-22T12:34:18.507Z,165
2017-09-22T12:35:18.704Z,165
2017-09-22T12:36:18.500Z,165
2017-09-22T12:37:17.553Z,165
2017-09-22T12:38:19.051Z,165
2017-09-22T12:39:18.496Z,165
2017-09-22T12:40:19.321Z,165
2017-09-22T12:41:18.527Z,165
2017-09-22T12:42:18.220Z,160
2017-09-22T12:43:17.596Z,160
2017-09-22T12:44:18.278Z,160
2017-09-22T12:45:19.041Z,160
2017-09-22T12:46:18.217Z,160
2017-09-22T12:47:17.909Z,160
2017-09-22T12:48:17.597Z,160
2017-09-22T12:49:18.243Z,160
2017-09-22T12:50:20.161Z,160
2017-09-22T12:51:17.924Z,160
2017-09-22T12:52:17.923Z,160
2017-09-22T12:53:17.927Z,160
2017-09-22T12:54:18.223Z,160
2017-09-22T12:55:19.505Z,160
2017-09-22T12:56:17.937Z,160
2017-09-22T12:57:17.954Z,155
2017-09-22T12:58:17.944Z,155
2017-09-22T12:59:18.592Z,155
2017-09-22T13:00:19.769Z,155
2017-09-22T13:01:17.632Z,155
2017-09-22T13:02:18.270Z,160
2017-09-22T13:03:18.266Z,155
2017-09-22T13:04:17.630Z,155
2017-09-22T13:05:19.019Z,155
2017-09-22T13:06:18.265Z,155
2017-09-22T13:07:18.253Z,155
2017-09-22T13:08:19.874Z,155
2017-09-22T13:09:17.965Z,155
2017-09-22T13:10:19.538Z,155
2017-09-22T13:11:17.968Z,155
2017-09-22T13:12:18.591Z,155
2017-09-22T13:13:17.967Z,155
2017-09-22T13:14:18.593Z,155
2017-09-22T13:15:19.972Z,155
2017-09-22T13:16:18.282Z,155
2017-09-22T13:17:17.986Z,155
2017-09-22T13:18:17.990Z,155
2017-09-22T13:19:17.673Z,155
2017-09-22T13:20:18.971Z,155
2017-09-22T13:21:18.007Z,155
2017-09-22T13:22:18.322Z,155
2017-09-22T13:23:18.637Z,155
2017-09-22T13:24:18.002Z,150
2017-09-22T13:25:19.275Z,150
2017-09-22T13:26:18.311Z,155
2017-09-22T13:27:18.347Z,155
2017-09-22T13:28:18.331Z,155
2017-09-22T13:29:18.021Z,155
2017-09-22T13:30:19.610Z,155
2017-09-22T13:31:18.047Z,160
2017-09-22T13:32:18.032Z,155
2017-09-22T13:33:18.337Z,155
2017-09-22T13:34:17.718Z,140
2017-09-22T13:35:19.702Z,155
2017-09-22T13:36:18.040Z,155
2017-09-22T13:37:18.709Z,150
2017-09-22T13:38:18.368Z,160
2017-09-22T13:39:18.877Z,165
2017-09-22T13:40:19.109Z,165
2017-09-22T13:41:18.381Z,165
2017-09-22T13:42:17.743Z,165
2017-09-22T13:43:18.371Z,160
2017-09-22T13:44:18.115Z,160
2017-09-22T13:45:19.147Z,155
2017-09-22T13:46:18.381Z,160
2017-09-22T13:47:18.063Z,160
2017-09-22T13:48:18.394Z,160
2017-09-22T13:49:18.384Z,160
2017-09-22T13:50:20.035Z,155
2017-09-22T13:51:18.704Z,155
2017-09-22T13:52:18.068Z,155
2017-09-22T13:53:18.411Z,155
2017-09-22T13:54:18.102Z,155
2017-09-22T13:55:19.985Z,155
2017-09-22T13:56:18.088Z,155
2017-09-22T13:57:18.117Z,155
2017-09-22T13:58:18.095Z,155
2017-09-22T13:59:18.102Z,155
2017-09-22T14:00:18.885Z,155
2017-09-22T14:01:18.151Z,155
2017-09-22T14:02:18.720Z,155
2017-09-22T14:03:18.760Z,150
2017-09-22T14:04:18.135Z,150
2017-09-22T14:05:19.285Z,150
2017-09-22T14:06:18.237Z,150
2017-09-22T14:07:17.807Z,150
2017-09-22T14:08:18.150Z,145
2017-09-22T14:09:19.464Z,145
2017-09-22T14:10:19.543Z,145
2017-09-22T14:11:18.804Z,145
2017-09-22T14:12:18.789Z,145
2017-09-22T14:13:18.792Z,145
2017-09-22T14:14:20.272Z,145
2017-09-22T14:15:19.093Z,145
2017-09-22T14:16:18.817Z,145
2017-09-22T14:17:18.139Z,145
2017-09-22T14:18:18.798Z,145
2017-09-22T14:19:18.503Z,145
2017-09-22T14:20:19.688Z,145
2017-09-22T14:21:18.161Z,150